sensor_id;sensor_type;location;lat;lon;timestamp;P1;durP1;ratioP1;P2;durP2;ratioP2
39674;SDS011;27790;50.840;4.386;2023-06-22T00:00:46;7.43;;;3.08;;
39674;SDS011;27790;50.840;4.386;2023-06-22T00:03:12;4.30;;;2.45;;
39674;SDS011;27790;50.840;4.386;2023-06-22T00:05:37;3.75;;;2.65;;
39674;SDS011;27790;50.840;4.386;2023-06-22T00:08:03;5.97;;;2.88;;
39674;SDS011;27790;50.840;4.386;2023-06-22T00:10:32;3.75;;;3.17;;
39674;SDS011;27790;50.840;4.386;2023-06-22T00:12:58;3.80;;;2.78;;
39674;SDS011;27790;50.840;4.386;2023-06-22T00:15:23;3.20;;;2.05;;
39674;SDS011;27790;50.840;4.386;2023-06-22T00:17:49;2.90;;;2.45;;
39674;SDS011;27790;50.840;4.386;2023-06-22T00:20:16;4.68;;;3.70;;
39674;SDS011;27790;50.840;4.386;2023-06-22T00:22:43;5.10;;;3.33;;
39674;SDS011;27790;50.840;4.386;2023-06-22T00:25:13;2.97;;;2.63;;
39674;SDS011;27790;50.840;4.386;2023-06-22T00:27:38;5.32;;;3.08;;
39674;SDS011;27790;50.840;4.386;2023-06-22T00:30:04;3.25;;;2.83;;
39674;SDS011;27790;50.840;4.386;2023-06-22T00:32:30;3.17;;;2.92;;
39674;SDS011;27790;50.840;4.386;2023-06-22T00:34:56;4.40;;;2.90;;
39674;SDS011;27790;50.840;4.386;2023-06-22T00:37:21;4.80;;;2.78;;
39674;SDS011;27790;50.840;4.386;2023-06-22T00:39:50;6.25;;;3.45;;
39674;SDS011;27790;50.840;4.386;2023-06-22T00:42:16;5.00;;;3.90;;
39674;SDS011;27790;50.840;4.386;2023-06-22T00:44:42;5.03;;;3.35;;
39674;SDS011;27790;50.840;4.386;2023-06-22T00:47:09;5.18;;;3.92;;
39674;SDS011;27790;50.840;4.386;2023-06-22T00:49:37;7.60;;;3.53;;
39674;SDS011;27790;50.840;4.386;2023-06-22T00:52:03;4.45;;;3.75;;
39674;SDS011;27790;50.840;4.386;2023-06-22T00:54:34;4.22;;;3.25;;
39674;SDS011;27790;50.840;4.386;2023-06-22T00:57:01;5.68;;;3.15;;
39674;SDS011;27790;50.840;4.386;2023-06-22T00:59:27;6.57;;;3.53;;
39674;SDS011;27790;50.840;4.386;2023-06-22T01:01:53;5.32;;;3.28;;
39674;SDS011;27790;50.840;4.386;2023-06-22T01:04:19;8.38;;;4.30;;
39674;SDS011;27790;50.840;4.386;2023-06-22T01:06:46;5.80;;;4.68;;
39674;SDS011;27790;50.840;4.386;2023-06-22T01:09:28;8.50;;;3.85;;
39674;SDS011;27790;50.840;4.386;2023-06-22T01:11:59;4.22;;;3.53;;
39674;SDS011;27790;50.840;4.386;2023-06-22T01:14:38;4.95;;;4.10;;
39674;SDS011;27790;50.840;4.386;2023-06-22T01:17:10;7.68;;;4.20;;
39674;SDS011;27790;50.840;4.386;2023-06-22T01:22:24;6.47;;;4.53;;
39674;SDS011;27790;50.840;4.386;2023-06-22T01:30:17;5.88;;;3.85;;
39674;SDS011;27790;50.840;4.386;2023-06-22T01:32:44;4.55;;;4.15;;
39674;SDS011;27790;50.840;4.386;2023-06-22T01:35:10;4.53;;;3.95;;
39674;SDS011;27790;50.840;4.386;2023-06-22T01:37:38;6.47;;;3.83;;
39674;SDS011;27790;50.840;4.386;2023-06-22T01:40:04;6.07;;;3.85;;
39674;SDS011;27790;50.840;4.386;2023-06-22T01:42:31;6.18;;;4.50;;
39674;SDS011;27790;50.840;4.386;2023-06-22T01:44:57;5.32;;;4.50;;
39674;SDS011;27790;50.840;4.386;2023-06-22T01:47:24;7.28;;;4.47;;
39674;SDS011;27790;50.840;4.386;2023-06-22T01:49:50;9.18;;;5.10;;
39674;SDS011;27790;50.840;4.386;2023-06-22T01:52:17;7.55;;;4.43;;
39674;SDS011;27790;50.840;4.386;2023-06-22T01:54:43;6.57;;;4.68;;
39674;SDS011;27790;50.840;4.386;2023-06-22T01:57:09;9.52;;;4.85;;
39674;SDS011;27790;50.840;4.386;2023-06-22T02:02:16;5.90;;;4.38;;
39674;SDS011;27790;50.840;4.386;2023-06-22T02:04:51;6.00;;;4.45;;
39674;SDS011;27790;50.840;4.386;2023-06-22T02:07:28;5.43;;;4.45;;
39674;SDS011;27790;50.840;4.386;2023-06-22T02:09:57;7.45;;;5.35;;
39674;SDS011;27790;50.840;4.386;2023-06-22T02:12:25;6.35;;;4.57;;
39674;SDS011;27790;50.840;4.386;2023-06-22T02:14:53;4.95;;;4.13;;
39674;SDS011;27790;50.840;4.386;2023-06-22T02:17:19;5.72;;;5.22;;
39674;SDS011;27790;50.840;4.386;2023-06-22T02:19:44;6.72;;;4.57;;
39674;SDS011;27790;50.840;4.386;2023-06-22T02:22:10;6.45;;;4.40;;
39674;SDS011;27790;50.840;4.386;2023-06-22T02:24:37;6.32;;;4.82;;
39674;SDS011;27790;50.840;4.386;2023-06-22T02:27:03;5.38;;;4.40;;
39674;SDS011;27790;50.840;4.386;2023-06-22T02:29:30;8.27;;;4.53;;
39674;SDS011;27790;50.840;4.386;2023-06-22T02:31:56;6.57;;;4.55;;
39674;SDS011;27790;50.840;4.386;2023-06-22T02:34:22;5.97;;;4.57;;
39674;SDS011;27790;50.840;4.386;2023-06-22T02:36:48;11.15;;;4.88;;
39674;SDS011;27790;50.840;4.386;2023-06-22T02:39:18;7.43;;;4.68;;
39674;SDS011;27790;50.840;4.386;2023-06-22T02:41:54;9.65;;;5.53;;
39674;SDS011;27790;50.840;4.386;2023-06-22T02:44:20;4.85;;;3.83;;
39674;SDS011;27790;50.840;4.386;2023-06-22T02:46:46;6.32;;;4.85;;
39674;SDS011;27790;50.840;4.386;2023-06-22T02:49:13;9.65;;;5.05;;
39674;SDS011;27790;50.840;4.386;2023-06-22T02:51:39;8.48;;;5.07;;
39674;SDS011;27790;50.840;4.386;2023-06-22T02:54:06;17.77;;;5.70;;
39674;SDS011;27790;50.840;4.386;2023-06-22T02:56:32;10.13;;;5.78;;
39674;SDS011;27790;50.840;4.386;2023-06-22T02:58:58;5.45;;;4.90;;
39674;SDS011;27790;50.840;4.386;2023-06-22T03:01:29;12.18;;;5.95;;
39674;SDS011;27790;50.840;4.386;2023-06-22T03:04:05;7.05;;;5.38;;
39674;SDS011;27790;50.840;4.386;2023-06-22T03:06:32;9.25;;;5.78;;
39674;SDS011;27790;50.840;4.386;2023-06-22T03:09:04;12.13;;;5.65;;
39674;SDS011;27790;50.840;4.386;2023-06-22T03:11:31;5.97;;;4.78;;
39674;SDS011;27790;50.840;4.386;2023-06-22T03:13:57;7.55;;;5.18;;
39674;SDS011;27790;50.840;4.386;2023-06-22T03:16:23;7.07;;;4.82;;
39674;SDS011;27790;50.840;4.386;2023-06-22T03:18:49;8.25;;;5.18;;
39674;SDS011;27790;50.840;4.386;2023-06-22T03:21:14;7.97;;;5.30;;
39674;SDS011;27790;50.840;4.386;2023-06-22T03:23:41;12.40;;;5.50;;
39674;SDS011;27790;50.840;4.386;2023-06-22T03:26:08;7.20;;;5.05;;
39674;SDS011;27790;50.840;4.386;2023-06-22T03:28:34;7.50;;;5.10;;
39674;SDS011;27790;50.840;4.386;2023-06-22T03:31:00;6.80;;;4.90;;
39674;SDS011;27790;50.840;4.386;2023-06-22T03:33:26;9.18;;;5.25;;
39674;SDS011;27790;50.840;4.386;2023-06-22T03:35:51;6.15;;;4.90;;
39674;SDS011;27790;50.840;4.386;2023-06-22T03:38:17;8.27;;;5.50;;
39674;SDS011;27790;50.840;4.386;2023-06-22T03:40:43;6.65;;;5.63;;
39674;SDS011;27790;50.840;4.386;2023-06-22T03:43:08;7.47;;;5.18;;
39674;SDS011;27790;50.840;4.386;2023-06-22T03:45:34;8.02;;;4.82;;
39674;SDS011;27790;50.840;4.386;2023-06-22T03:48:00;5.13;;;4.55;;
39674;SDS011;27790;50.840;4.386;2023-06-22T03:50:26;9.90;;;5.22;;
39674;SDS011;27790;50.840;4.386;2023-06-22T03:52:52;9.23;;;5.20;;
39674;SDS011;27790;50.840;4.386;2023-06-22T03:55:20;7.63;;;6.43;;
39674;SDS011;27790;50.840;4.386;2023-06-22T03:57:46;9.15;;;5.28;;
39674;SDS011;27790;50.840;4.386;2023-06-22T04:00:12;6.68;;;5.57;;
39674;SDS011;27790;50.840;4.386;2023-06-22T04:02:38;7.20;;;5.63;;
39674;SDS011;27790;50.840;4.386;2023-06-22T04:05:04;10.20;;;6.88;;
39674;SDS011;27790;50.840;4.386;2023-06-22T04:07:30;7.97;;;6.15;;
39674;SDS011;27790;50.840;4.386;2023-06-22T04:09:55;9.05;;;6.45;;
39674;SDS011;27790;50.840;4.386;2023-06-22T04:12:22;11.23;;;5.90;;
39674;SDS011;27790;50.840;4.386;2023-06-22T04:14:48;9.07;;;5.80;;
39674;SDS011;27790;50.840;4.386;2023-06-22T04:17:14;10.10;;;6.80;;
39674;SDS011;27790;50.840;4.386;2023-06-22T04:19:40;9.52;;;6.63;;
39674;SDS011;27790;50.840;4.386;2023-06-22T04:22:06;8.82;;;6.95;;
39674;SDS011;27790;50.840;4.386;2023-06-22T04:24:32;10.05;;;6.93;;
39674;SDS011;27790;50.840;4.386;2023-06-22T04:26:58;10.02;;;7.80;;
39674;SDS011;27790;50.840;4.386;2023-06-22T04:29:27;11.63;;;7.25;;
39674;SDS011;27790;50.840;4.386;2023-06-22T04:31:55;9.48;;;6.80;;
39674;SDS011;27790;50.840;4.386;2023-06-22T04:34:27;10.40;;;6.97;;
39674;SDS011;27790;50.840;4.386;2023-06-22T04:36:53;9.93;;;7.47;;
39674;SDS011;27790;50.840;4.386;2023-06-22T04:39:20;11.07;;;7.60;;
39674;SDS011;27790;50.840;4.386;2023-06-22T04:41:46;9.98;;;7.60;;
39674;SDS011;27790;50.840;4.386;2023-06-22T04:44:12;9.90;;;7.43;;
39674;SDS011;27790;50.840;4.386;2023-06-22T04:46:49;9.35;;;7.85;;
39674;SDS011;27790;50.840;4.386;2023-06-22T04:49:19;13.90;;;7.57;;
39674;SDS011;27790;50.840;4.386;2023-06-22T04:51:45;15.80;;;8.38;;
39674;SDS011;27790;50.840;4.386;2023-06-22T04:54:11;13.88;;;9.32;;
39674;SDS011;27790;50.840;4.386;2023-06-22T04:56:37;14.55;;;8.38;;
39674;SDS011;27790;50.840;4.386;2023-06-22T04:59:06;11.27;;;8.23;;
39674;SDS011;27790;50.840;4.386;2023-06-22T05:01:33;16.25;;;9.05;;
39674;SDS011;27790;50.840;4.386;2023-06-22T05:04:00;10.90;;;8.45;;
39674;SDS011;27790;50.840;4.386;2023-06-22T05:06:26;14.07;;;9.30;;
39674;SDS011;27790;50.840;4.386;2023-06-22T05:08:53;11.32;;;8.60;;
39674;SDS011;27790;50.840;4.386;2023-06-22T05:11:31;27.77;;;9.45;;
39674;SDS011;27790;50.840;4.386;2023-06-22T05:13:57;17.35;;;9.88;;
39674;SDS011;27790;50.840;4.386;2023-06-22T05:16:22;11.40;;;8.23;;
39674;SDS011;27790;50.840;4.386;2023-06-22T05:18:52;12.30;;;8.57;;
39674;SDS011;27790;50.840;4.386;2023-06-22T05:21:22;15.85;;;8.23;;
39674;SDS011;27790;50.840;4.386;2023-06-22T05:23:49;10.77;;;8.70;;
39674;SDS011;27790;50.840;4.386;2023-06-22T05:26:15;12.25;;;8.45;;
39674;SDS011;27790;50.840;4.386;2023-06-22T05:28:41;14.30;;;9.40;;
39674;SDS011;27790;50.840;4.386;2023-06-22T05:31:06;12.68;;;9.68;;
39674;SDS011;27790;50.840;4.386;2023-06-22T05:33:32;15.48;;;11.05;;
39674;SDS011;27790;50.840;4.386;2023-06-22T05:35:58;17.98;;;11.18;;
39674;SDS011;27790;50.840;4.386;2023-06-22T05:38:23;19.23;;;11.40;;
39674;SDS011;27790;50.840;4.386;2023-06-22T05:40:49;15.13;;;11.90;;
39674;SDS011;27790;50.840;4.386;2023-06-22T05:43:15;14.73;;;11.13;;
39674;SDS011;27790;50.840;4.386;2023-06-22T05:45:40;18.25;;;11.93;;
39674;SDS011;27790;50.840;4.386;2023-06-22T05:48:06;18.73;;;11.70;;
39674;SDS011;27790;50.840;4.386;2023-06-22T05:50:32;13.35;;;11.40;;
39674;SDS011;27790;50.840;4.386;2023-06-22T05:52:57;17.02;;;11.55;;
39674;SDS011;27790;50.840;4.386;2023-06-22T05:55:23;17.40;;;11.73;;
39674;SDS011;27790;50.840;4.386;2023-06-22T05:57:48;17.63;;;12.00;;
39674;SDS011;27790;50.840;4.386;2023-06-22T06:00:14;19.05;;;12.55;;
39674;SDS011;27790;50.840;4.386;2023-06-22T06:02:40;19.05;;;11.88;;
39674;SDS011;27790;50.840;4.386;2023-06-22T06:05:11;18.75;;;12.68;;
39674;SDS011;27790;50.840;4.386;2023-06-22T06:07:43;17.85;;;13.27;;
39674;SDS011;27790;50.840;4.386;2023-06-22T06:10:09;22.35;;;14.38;;
39674;SDS011;27790;50.840;4.386;2023-06-22T06:12:35;16.65;;;13.40;;
39674;SDS011;27790;50.840;4.386;2023-06-22T06:15:01;19.67;;;13.70;;
39674;SDS011;27790;50.840;4.386;2023-06-22T06:17:27;19.98;;;13.15;;
39674;SDS011;27790;50.840;4.386;2023-06-22T06:19:53;17.80;;;12.73;;
39674;SDS011;27790;50.840;4.386;2023-06-22T06:22:19;16.92;;;11.70;;
39674;SDS011;27790;50.840;4.386;2023-06-22T06:24:46;21.35;;;13.18;;
39674;SDS011;27790;50.840;4.386;2023-06-22T06:27:13;19.45;;;12.00;;
39674;SDS011;27790;50.840;4.386;2023-06-22T06:29:38;20.30;;;11.88;;
39674;SDS011;27790;50.840;4.386;2023-06-22T06:32:04;21.27;;;13.20;;
39674;SDS011;27790;50.840;4.386;2023-06-22T06:34:30;25.60;;;13.32;;
39674;SDS011;27790;50.840;4.386;2023-06-22T06:36:56;20.65;;;12.20;;
39674;SDS011;27790;50.840;4.386;2023-06-22T06:39:21;17.30;;;11.90;;
39674;SDS011;27790;50.840;4.386;2023-06-22T06:41:47;22.50;;;14.13;;
39674;SDS011;27790;50.840;4.386;2023-06-22T06:44:13;23.08;;;13.23;;
39674;SDS011;27790;50.840;4.386;2023-06-22T06:46:38;21.80;;;13.63;;
39674;SDS011;27790;50.840;4.386;2023-06-22T06:49:04;21.45;;;13.90;;
39674;SDS011;27790;50.840;4.386;2023-06-22T06:51:30;22.67;;;13.90;;
39674;SDS011;27790;50.840;4.386;2023-06-22T06:53:55;19.98;;;13.93;;
39674;SDS011;27790;50.840;4.386;2023-06-22T06:56:21;16.17;;;13.32;;
39674;SDS011;27790;50.840;4.386;2023-06-22T06:58:47;22.10;;;14.07;;
39674;SDS011;27790;50.840;4.386;2023-06-22T07:01:14;18.92;;;13.20;;
39674;SDS011;27790;50.840;4.386;2023-06-22T07:03:40;22.70;;;13.80;;
39674;SDS011;27790;50.840;4.386;2023-06-22T07:06:06;18.08;;;12.30;;
39674;SDS011;27790;50.840;4.386;2023-06-22T07:08:31;22.83;;;14.15;;
39674;SDS011;27790;50.840;4.386;2023-06-22T07:10:57;18.17;;;13.35;;
39674;SDS011;27790;50.840;4.386;2023-06-22T07:13:23;22.25;;;13.48;;
39674;SDS011;27790;50.840;4.386;2023-06-22T07:15:48;22.48;;;13.57;;
39674;SDS011;27790;50.840;4.386;2023-06-22T07:18:14;18.45;;;14.52;;
39674;SDS011;27790;50.840;4.386;2023-06-22T07:20:39;26.63;;;14.32;;
39674;SDS011;27790;50.840;4.386;2023-06-22T07:23:06;21.45;;;13.43;;
39674;SDS011;27790;50.840;4.386;2023-06-22T07:25:31;19.42;;;14.50;;
39674;SDS011;27790;50.840;4.386;2023-06-22T07:30:24;21.83;;;14.85;;
39674;SDS011;27790;50.840;4.386;2023-06-22T07:32:51;18.50;;;13.23;;
39674;SDS011;27790;50.840;4.386;2023-06-22T07:35:16;22.00;;;14.77;;
39674;SDS011;27790;50.840;4.386;2023-06-22T07:37:42;14.88;;;12.43;;
39674;SDS011;27790;50.840;4.386;2023-06-22T07:40:08;18.27;;;13.65;;
39674;SDS011;27790;50.840;4.386;2023-06-22T07:42:34;16.38;;;12.82;;
39674;SDS011;27790;50.840;4.386;2023-06-22T07:45:00;15.40;;;12.60;;
39674;SDS011;27790;50.840;4.386;2023-06-22T07:47:27;19.05;;;12.75;;
39674;SDS011;27790;50.840;4.386;2023-06-22T07:49:58;16.10;;;12.10;;
39674;SDS011;27790;50.840;4.386;2023-06-22T07:52:26;18.30;;;12.10;;
39674;SDS011;27790;50.840;4.386;2023-06-22T07:54:51;14.73;;;13.18;;
39674;SDS011;27790;50.840;4.386;2023-06-22T07:57:17;24.10;;;14.10;;
39674;SDS011;27790;50.840;4.386;2023-06-22T07:59:43;23.27;;;13.27;;
39674;SDS011;27790;50.840;4.386;2023-06-22T08:02:09;19.20;;;12.52;;
39674;SDS011;27790;50.840;4.386;2023-06-22T08:04:35;14.95;;;12.75;;
39674;SDS011;27790;50.840;4.386;2023-06-22T08:07:03;34.08;;;12.98;;
39674;SDS011;27790;50.840;4.386;2023-06-22T08:09:30;17.35;;;12.50;;
39674;SDS011;27790;50.840;4.386;2023-06-22T08:11:58;13.50;;;11.82;;
39674;SDS011;27790;50.840;4.386;2023-06-22T08:14:27;18.65;;;12.15;;
39674;SDS011;27790;50.840;4.386;2023-06-22T08:16:52;15.98;;;11.27;;
39674;SDS011;27790;50.840;4.386;2023-06-22T08:19:18;19.80;;;13.13;;
39674;SDS011;27790;50.840;4.386;2023-06-22T08:21:44;26.45;;;12.07;;
39674;SDS011;27790;50.840;4.386;2023-06-22T08:24:09;14.77;;;11.82;;
39674;SDS011;27790;50.840;4.386;2023-06-22T08:26:35;18.17;;;11.60;;
39674;SDS011;27790;50.840;4.386;2023-06-22T08:29:02;14.95;;;12.35;;
39674;SDS011;27790;50.840;4.386;2023-06-22T08:31:28;15.98;;;13.02;;
39674;SDS011;27790;50.840;4.386;2023-06-22T08:33:54;19.13;;;12.50;;
39674;SDS011;27790;50.840;4.386;2023-06-22T08:36:20;17.13;;;12.85;;
39674;SDS011;27790;50.840;4.386;2023-06-22T08:38:45;16.52;;;13.48;;
39674;SDS011;27790;50.840;4.386;2023-06-22T08:41:15;31.30;;;14.63;;
39674;SDS011;27790;50.840;4.386;2023-06-22T08:43:41;54.05;;;15.27;;
39674;SDS011;27790;50.840;4.386;2023-06-22T08:46:08;16.58;;;12.88;;
39674;SDS011;27790;50.840;4.386;2023-06-22T08:48:33;32.80;;;14.13;;
39674;SDS011;27790;50.840;4.386;2023-06-22T08:50:59;16.50;;;13.77;;
39674;SDS011;27790;50.840;4.386;2023-06-22T08:53:25;26.23;;;12.95;;
39674;SDS011;27790;50.840;4.386;2023-06-22T08:55:50;22.77;;;14.30;;
39674;SDS011;27790;50.840;4.386;2023-06-22T08:58:16;19.75;;;12.35;;
39674;SDS011;27790;50.840;4.386;2023-06-22T09:00:41;18.13;;;11.85;;
39674;SDS011;27790;50.840;4.386;2023-06-22T09:03:07;17.35;;;12.68;;
39674;SDS011;27790;50.840;4.386;2023-06-22T09:05:33;24.25;;;13.35;;
39674;SDS011;27790;50.840;4.386;2023-06-22T09:07:58;16.60;;;12.95;;
39674;SDS011;27790;50.840;4.386;2023-06-22T09:10:24;16.05;;;11.80;;
39674;SDS011;27790;50.840;4.386;2023-06-22T09:12:50;18.45;;;12.38;;
39674;SDS011;27790;50.840;4.386;2023-06-22T09:15:16;18.33;;;12.25;;
39674;SDS011;27790;50.840;4.386;2023-06-22T09:17:42;12.32;;;11.02;;
39674;SDS011;27790;50.840;4.386;2023-06-22T09:20:08;14.60;;;10.63;;
39674;SDS011;27790;50.840;4.386;2023-06-22T09:22:36;15.00;;;10.82;;
39674;SDS011;27790;50.840;4.386;2023-06-22T09:25:01;17.65;;;11.45;;
39674;SDS011;27790;50.840;4.386;2023-06-22T09:27:28;15.43;;;10.82;;
39674;SDS011;27790;50.840;4.386;2023-06-22T09:29:54;19.23;;;11.63;;
39674;SDS011;27790;50.840;4.386;2023-06-22T09:32:22;15.55;;;11.85;;
39674;SDS011;27790;50.840;4.386;2023-06-22T09:34:48;15.45;;;11.68;;
39674;SDS011;27790;50.840;4.386;2023-06-22T09:37:13;14.35;;;11.38;;
39674;SDS011;27790;50.840;4.386;2023-06-22T09:39:39;13.80;;;11.32;;
39674;SDS011;27790;50.840;4.386;2023-06-22T09:42:05;41.30;;;16.13;;
39674;SDS011;27790;50.840;4.386;2023-06-22T09:44:31;39.08;;;15.75;;
39674;SDS011;27790;50.840;4.386;2023-06-22T09:46:56;52.60;;;16.67;;
39674;SDS011;27790;50.840;4.386;2023-06-22T09:49:22;31.65;;;14.05;;
39674;SDS011;27790;50.840;4.386;2023-06-22T09:51:48;17.73;;;13.00;;
39674;SDS011;27790;50.840;4.386;2023-06-22T09:54:15;19.00;;;13.70;;
39674;SDS011;27790;50.840;4.386;2023-06-22T09:56:41;21.20;;;14.85;;
39674;SDS011;27790;50.840;4.386;2023-06-22T09:59:07;23.58;;;15.45;;
39674;SDS011;27790;50.840;4.386;2023-06-22T10:01:32;17.95;;;15.27;;
39674;SDS011;27790;50.840;4.386;2023-06-22T10:03:58;28.50;;;16.88;;
39674;SDS011;27790;50.840;4.386;2023-06-22T10:06:23;22.08;;;14.98;;
39674;SDS011;27790;50.840;4.386;2023-06-22T10:08:50;17.05;;;14.80;;
39674;SDS011;27790;50.840;4.386;2023-06-22T10:11:16;21.33;;;16.70;;
39674;SDS011;27790;50.840;4.386;2023-06-22T10:13:42;26.30;;;17.88;;
39674;SDS011;27790;50.840;4.386;2023-06-22T10:16:08;27.58;;;18.00;;
39674;SDS011;27790;50.840;4.386;2023-06-22T10:18:33;27.27;;;20.25;;
39674;SDS011;27790;50.840;4.386;2023-06-22T10:20:59;24.73;;;19.17;;
39674;SDS011;27790;50.840;4.386;2023-06-22T10:23:25;24.83;;;18.23;;
39674;SDS011;27790;50.840;4.386;2023-06-22T10:25:51;30.25;;;19.00;;
39674;SDS011;27790;50.840;4.386;2023-06-22T10:28:16;27.05;;;16.92;;
39674;SDS011;27790;50.840;4.386;2023-06-22T10:30:42;20.63;;;16.38;;
39674;SDS011;27790;50.840;4.386;2023-06-22T10:33:08;22.63;;;17.00;;
39674;SDS011;27790;50.840;4.386;2023-06-22T10:35:35;20.52;;;15.55;;
39674;SDS011;27790;50.840;4.386;2023-06-22T10:38:02;21.58;;;15.70;;
39674;SDS011;27790;50.840;4.386;2023-06-22T10:40:28;26.52;;;17.70;;
39674;SDS011;27790;50.840;4.386;2023-06-22T10:42:54;26.23;;;17.65;;
39674;SDS011;27790;50.840;4.386;2023-06-22T10:45:20;23.83;;;17.35;;
39674;SDS011;27790;50.840;4.386;2023-06-22T10:47:46;23.50;;;17.90;;
39674;SDS011;27790;50.840;4.386;2023-06-22T10:50:11;26.40;;;18.58;;
39674;SDS011;27790;50.840;4.386;2023-06-22T10:52:37;23.08;;;17.65;;
39674;SDS011;27790;50.840;4.386;2023-06-22T10:55:03;25.90;;;18.45;;
39674;SDS011;27790;50.840;4.386;2023-06-22T10:57:29;24.48;;;18.58;;
39674;SDS011;27790;50.840;4.386;2023-06-22T10:59:55;27.55;;;19.10;;
39674;SDS011;27790;50.840;4.386;2023-06-22T11:02:20;24.00;;;18.70;;
39674;SDS011;27790;50.840;4.386;2023-06-22T11:04:46;27.90;;;19.98;;
39674;SDS011;27790;50.840;4.386;2023-06-22T11:07:12;27.17;;;20.90;;
39674;SDS011;27790;50.840;4.386;2023-06-22T11:09:38;29.83;;;20.95;;
39674;SDS011;27790;50.840;4.386;2023-06-22T11:12:04;36.50;;;21.13;;
39674;SDS011;27790;50.840;4.386;2023-06-22T11:14:31;29.00;;;20.02;;
39674;SDS011;27790;50.840;4.386;2023-06-22T11:16:58;29.42;;;21.17;;
39674;SDS011;27790;50.840;4.386;2023-06-22T11:19:24;29.85;;;20.65;;
39674;SDS011;27790;50.840;4.386;2023-06-22T11:21:49;29.27;;;22.20;;
39674;SDS011;27790;50.840;4.386;2023-06-22T11:24:16;30.45;;;20.67;;
39674;SDS011;27790;50.840;4.386;2023-06-22T11:26:42;27.05;;;21.05;;
39674;SDS011;27790;50.840;4.386;2023-06-22T11:29:08;24.73;;;21.20;;
39674;SDS011;27790;50.840;4.386;2023-06-22T11:31:34;26.38;;;20.35;;
39674;SDS011;27790;50.840;4.386;2023-06-22T11:34:00;25.77;;;20.27;;
39674;SDS011;27790;50.840;4.386;2023-06-22T11:36:25;25.08;;;20.45;;
39674;SDS011;27790;50.840;4.386;2023-06-22T11:38:51;22.35;;;18.85;;
39674;SDS011;27790;50.840;4.386;2023-06-22T11:41:17;20.70;;;18.15;;
39674;SDS011;27790;50.840;4.386;2023-06-22T11:43:43;21.40;;;16.67;;
39674;SDS011;27790;50.840;4.386;2023-06-22T11:46:09;24.52;;;16.73;;
39674;SDS011;27790;50.840;4.386;2023-06-22T11:48:35;26.42;;;18.15;;
39674;SDS011;27790;50.840;4.386;2023-06-22T11:51:01;29.33;;;18.30;;
39674;SDS011;27790;50.840;4.386;2023-06-22T11:53:27;27.90;;;18.92;;
39674;SDS011;27790;50.840;4.386;2023-06-22T11:55:54;21.95;;;18.10;;
39674;SDS011;27790;50.840;4.386;2023-06-22T11:58:20;25.55;;;15.10;;
39674;SDS011;27790;50.840;4.386;2023-06-22T12:00:46;21.90;;;15.35;;
39674;SDS011;27790;50.840;4.386;2023-06-22T12:03:11;21.30;;;16.48;;
39674;SDS011;27790;50.840;4.386;2023-06-22T12:05:37;22.25;;;17.55;;
39674;SDS011;27790;50.840;4.386;2023-06-22T12:08:05;22.20;;;16.17;;
39674;SDS011;27790;50.840;4.386;2023-06-22T12:10:31;18.50;;;14.15;;
39674;SDS011;27790;50.840;4.386;2023-06-22T12:12:57;19.33;;;16.65;;
39674;SDS011;27790;50.840;4.386;2023-06-22T12:15:25;20.88;;;16.27;;
39674;SDS011;27790;50.840;4.386;2023-06-22T12:17:51;21.27;;;17.35;;
39674;SDS011;27790;50.840;4.386;2023-06-22T12:20:17;18.65;;;14.98;;
39674;SDS011;27790;50.840;4.386;2023-06-22T12:22:43;19.35;;;15.27;;
39674;SDS011;27790;50.840;4.386;2023-06-22T12:25:08;25.52;;;18.15;;
39674;SDS011;27790;50.840;4.386;2023-06-22T12:27:35;22.60;;;15.35;;
39674;SDS011;27790;50.840;4.386;2023-06-22T12:30:01;18.20;;;14.60;;
39674;SDS011;27790;50.840;4.386;2023-06-22T12:32:26;19.90;;;13.63;;
39674;SDS011;27790;50.840;4.386;2023-06-22T12:34:52;19.35;;;15.93;;
39674;SDS011;27790;50.840;4.386;2023-06-22T12:37:18;21.67;;;15.27;;
39674;SDS011;27790;50.840;4.386;2023-06-22T12:39:43;24.42;;;16.00;;
39674;SDS011;27790;50.840;4.386;2023-06-22T12:42:09;19.30;;;15.45;;
39674;SDS011;27790;50.840;4.386;2023-06-22T12:44:37;21.58;;;17.73;;
39674;SDS011;27790;50.840;4.386;2023-06-22T12:47:04;29.00;;;18.98;;
39674;SDS011;27790;50.840;4.386;2023-06-22T12:49:30;26.90;;;19.40;;
39674;SDS011;27790;50.840;4.386;2023-06-22T12:51:56;24.85;;;20.30;;
39674;SDS011;27790;50.840;4.386;2023-06-22T12:54:21;28.42;;;21.75;;
39674;SDS011;27790;50.840;4.386;2023-06-22T12:56:47;25.33;;;20.50;;
39674;SDS011;27790;50.840;4.386;2023-06-22T12:59:15;31.83;;;23.15;;
39674;SDS011;27790;50.840;4.386;2023-06-22T13:01:42;30.55;;;22.58;;
39674;SDS011;27790;50.840;4.386;2023-06-22T13:04:08;30.55;;;24.65;;
39674;SDS011;27790;50.840;4.386;2023-06-22T13:06:36;31.58;;;23.17;;
39674;SDS011;27790;50.840;4.386;2023-06-22T13:09:01;36.75;;;24.50;;
39674;SDS011;27790;50.840;4.386;2023-06-22T13:11:30;32.30;;;25.50;;
39674;SDS011;27790;50.840;4.386;2023-06-22T13:13:55;34.42;;;25.52;;
39674;SDS011;27790;50.840;4.386;2023-06-22T13:16:21;30.88;;;24.63;;
39674;SDS011;27790;50.840;4.386;2023-06-22T13:18:46;36.90;;;25.70;;
39674;SDS011;27790;50.840;4.386;2023-06-22T13:21:12;35.85;;;27.13;;
39674;SDS011;27790;50.840;4.386;2023-06-22T13:23:39;40.22;;;27.58;;
39674;SDS011;27790;50.840;4.386;2023-06-22T13:26:04;38.65;;;28.58;;
39674;SDS011;27790;50.840;4.386;2023-06-22T13:28:30;38.83;;;27.17;;
39674;SDS011;27790;50.840;4.386;2023-06-22T13:30:55;35.17;;;26.63;;
39674;SDS011;27790;50.840;4.386;2023-06-22T13:33:21;38.47;;;28.40;;
39674;SDS011;27790;50.840;4.386;2023-06-22T13:35:47;35.63;;;27.45;;
39674;SDS011;27790;50.840;4.386;2023-06-22T13:38:12;36.05;;;24.77;;
39674;SDS011;27790;50.840;4.386;2023-06-22T13:40:38;30.77;;;24.90;;
39674;SDS011;27790;50.840;4.386;2023-06-22T13:43:04;30.42;;;24.15;;
39674;SDS011;27790;50.840;4.386;2023-06-22T13:45:30;35.42;;;27.33;;
39674;SDS011;27790;50.840;4.386;2023-06-22T13:47:56;38.97;;;27.08;;
39674;SDS011;27790;50.840;4.386;2023-06-22T13:50:22;33.72;;;26.08;;
39674;SDS011;27790;50.840;4.386;2023-06-22T13:52:48;38.78;;;26.63;;
39674;SDS011;27790;50.840;4.386;2023-06-22T13:55:13;34.85;;;24.85;;
39674;SDS011;27790;50.840;4.386;2023-06-22T13:57:39;35.92;;;24.77;;
39674;SDS011;27790;50.840;4.386;2023-06-22T14:00:06;31.50;;;24.92;;
39674;SDS011;27790;50.840;4.386;2023-06-22T14:02:37;35.55;;;25.58;;
39674;SDS011;27790;50.840;4.386;2023-06-22T14:05:03;28.88;;;24.10;;
39674;SDS011;27790;50.840;4.386;2023-06-22T14:07:29;32.60;;;24.92;;
39674;SDS011;27790;50.840;4.386;2023-06-22T14:09:54;28.77;;;23.90;;
39674;SDS011;27790;50.840;4.386;2023-06-22T14:12:20;33.33;;;25.23;;
39674;SDS011;27790;50.840;4.386;2023-06-22T14:14:46;32.08;;;24.92;;
39674;SDS011;27790;50.840;4.386;2023-06-22T14:17:11;37.60;;;27.90;;
39674;SDS011;27790;50.840;4.386;2023-06-22T14:19:37;31.58;;;25.30;;
39674;SDS011;27790;50.840;4.386;2023-06-22T14:22:03;28.48;;;23.23;;
39674;SDS011;27790;50.840;4.386;2023-06-22T14:24:29;30.98;;;24.38;;
39674;SDS011;27790;50.840;4.386;2023-06-22T14:26:54;33.92;;;24.40;;
39674;SDS011;27790;50.840;4.386;2023-06-22T14:29:20;27.60;;;23.20;;
39674;SDS011;27790;50.840;4.386;2023-06-22T14:31:47;30.02;;;22.55;;
39674;SDS011;27790;50.840;4.386;2023-06-22T14:34:13;31.98;;;23.45;;
39674;SDS011;27790;50.840;4.386;2023-06-22T14:36:40;31.88;;;25.83;;
39674;SDS011;27790;50.840;4.386;2023-06-22T14:39:06;31.55;;;25.65;;